createdAt,value
2023-04-19T00:00:09.699Z,18.93
2023-04-19T00:02:40.949Z,18.37
2023-04-19T00:05:11.986Z,18.60
2023-04-19T00:07:40.496Z,19.17
2023-04-19T00:10:11.316Z,18.67
2023-04-19T00:12:39.903Z,18.70
2023-04-19T00:15:08.778Z,20.37
2023-04-19T00:17:36.897Z,21.10
2023-04-19T00:20:05.598Z,21.57
2023-04-19T00:22:33.714Z,21.87
2023-04-19T00:25:02.557Z,23.47
2023-04-19T00:27:32.355Z,23.83
2023-04-19T00:30:00.874Z,25.77
2023-04-19T00:32:29.116Z,27.40
2023-04-19T00:34:58.984Z,27.97
2023-04-19T00:37:27.119Z,29.03
2023-04-19T00:39:55.755Z,29.23
2023-04-19T00:42:23.861Z,31.53
2023-04-19T00:44:53.409Z,31.70
2023-04-19T00:47:21.656Z,33.80
2023-04-19T00:49:49.832Z,33.13
2023-04-19T00:52:18.386Z,33.87
2023-04-19T00:54:47.136Z,33.53
2023-04-19T00:57:15.517Z,36.90
2023-04-19T00:59:43.877Z,36.03
2023-04-19T01:02:13.729Z,36.20
2023-04-19T01:04:42.260Z,34.63
2023-04-19T01:07:10.419Z,35.50
2023-04-19T01:09:41.913Z,35.10
2023-04-19T01:12:10.068Z,34.03
2023-04-19T01:14:38.207Z,35.57
2023-04-19T01:17:07.496Z,34.53
2023-04-19T01:19:37.323Z,33.97
2023-04-19T01:22:06.581Z,34.00
2023-04-19T01:24:36.266Z,33.87
2023-04-19T01:27:04.423Z,33.13
2023-04-19T01:29:32.535Z,33.63
2023-04-19T01:32:01.105Z,33.60
2023-04-19T01:34:29.403Z,32.33
2023-04-19T01:36:58.209Z,32.93
2023-04-19T01:39:27.394Z,30.67
2023-04-19T01:41:56.988Z,31.47
2023-04-19T01:44:25.198Z,31.47
2023-04-19T01:46:55.130Z,32.57
2023-04-19T01:49:23.262Z,31.23
2023-04-19T01:51:51.395Z,31.97
2023-04-19T01:54:19.534Z,32.93
2023-04-19T01:56:50.664Z,32.23
2023-04-19T01:59:20.604Z,30.47
2023-04-19T02:01:48.854Z,33.17
2023-04-19T02:04:17.528Z,31.17
2023-04-19T02:06:45.965Z,32.20
2023-04-19T02:09:14.083Z,30.53
2023-04-19T02:11:43.656Z,30.87
2023-04-19T02:14:11.841Z,31.40
2023-04-19T02:16:41.922Z,30.17
2023-04-19T02:19:10.274Z,30.77
2023-04-19T02:21:38.418Z,28.50
2023-04-19T02:24:07.022Z,28.23
2023-04-19T02:26:35.534Z,26.00
2023-04-19T02:29:06.323Z,26.07
2023-04-19T02:31:35.001Z,26.03
2023-04-19T02:34:04.528Z,26.20
2023-04-19T02:36:34.737Z,26.03
2023-04-19T02:39:05.644Z,25.97
2023-04-19T02:41:33.752Z,24.03
2023-04-19T02:44:03.447Z,23.97
2023-04-19T02:46:31.769Z,23.30
2023-04-19T02:49:01.953Z,22.13
2023-04-19T02:51:31.674Z,21.17
2023-04-19T02:54:00.500Z,21.53
2023-04-19T02:56:28.783Z,21.80
2023-04-19T02:58:57.171Z,20.70
2023-04-19T03:01:25.515Z,20.03
2023-04-19T03:03:53.777Z,19.17
2023-04-19T03:06:22.488Z,20.03
2023-04-19T03:08:51.986Z,19.70
2023-04-19T03:11:21.165Z,18.93
2023-04-19T03:13:49.318Z,18.80
2023-04-19T03:16:17.611Z,18.53
2023-04-19T03:18:48.051Z,19.63
2023-04-19T03:21:20.172Z,18.87
2023-04-19T03:23:55.940Z,16.97
2023-04-19T03:26:26.367Z,16.33
2023-04-19T03:28:57.478Z,16.87
2023-04-19T03:31:41.494Z,15.90
2023-04-19T03:34:13.607Z,16.37
2023-04-19T03:36:45.456Z,17.03
2023-04-19T03:39:15.025Z,16.07
2023-04-19T03:41:46.021Z,14.50
2023-04-19T03:44:36.960Z,14.80
2023-04-19T03:47:07.556Z,14.97
2023-04-19T03:49:41.679Z,14.57
2023-04-19T03:52:09.923Z,14.03
2023-04-19T03:54:39.474Z,14.97
2023-04-19T03:57:13.322Z,13.90
2023-04-19T03:59:41.832Z,14.10
2023-04-19T04:02:11.267Z,14.63
2023-04-19T04:04:39.776Z,14.60
2023-04-19T04:07:09.401Z,14.30
2023-04-19T04:09:39.049Z,13.80
2023-04-19T04:12:07.575Z,13.10
2023-04-19T04:14:36.172Z,13.33
2023-04-19T04:17:06.352Z,13.30
2023-04-19T04:19:34.463Z,13.97
2023-04-19T04:22:02.760Z,15.47
2023-04-19T04:24:41.974Z,15.30
2023-04-19T04:27:23.328Z,14.83
2023-04-19T04:29:56.822Z,16.47
2023-04-19T04:32:25.467Z,17.00
2023-04-19T04:34:59.241Z,18.50
2023-04-19T04:37:40.275Z,17.07
2023-04-19T04:40:11.737Z,18.20
2023-04-19T04:42:40.885Z,17.43
2023-04-19T04:45:10.794Z,17.20
2023-04-19T04:47:40.295Z,17.13
2023-04-19T04:50:09.839Z,18.70
2023-04-19T04:52:37.995Z,18.47
2023-04-19T04:55:18.596Z,19.60
2023-04-19T04:57:46.750Z,17.57
2023-04-19T05:00:22.190Z,20.07
2023-04-19T05:03:02.314Z,19.30
2023-04-19T05:05:32.240Z,18.43
2023-04-19T05:08:01.228Z,19.03
2023-04-19T05:10:31.110Z,20.17
2023-04-19T05:12:59.257Z,19.90
2023-04-19T05:15:29.768Z,18.80
2023-04-19T05:17:58.732Z,19.90
2023-04-19T05:20:27.742Z,18.67
2023-04-19T05:23:08.260Z,18.67
2023-04-19T05:25:37.862Z,18.43
2023-04-19T05:28:06.404Z,18.90
2023-04-19T05:30:43.588Z,16.97
2023-04-19T05:33:12.712Z,16.77
2023-04-19T05:35:40.961Z,17.23
2023-04-19T05:38:09.202Z,17.57
2023-04-19T05:40:40.138Z,18.90
2023-04-19T05:43:08.339Z,18.23
2023-04-19T05:45:36.529Z,20.40
2023-04-19T05:48:05.456Z,18.90
2023-04-19T05:50:36.832Z,18.63
2023-04-19T05:53:31.958Z,20.63
2023-04-19T05:56:02.409Z,23.40
2023-04-19T05:58:30.846Z,20.97
2023-04-19T06:00:59.841Z,20.57
2023-04-19T06:03:31.107Z,21.77
2023-04-19T06:06:01.684Z,21.50
2023-04-19T06:08:29.865Z,21.37
2023-04-19T06:11:02.185Z,17.37
2023-04-19T06:13:37.740Z,17.30
2023-04-19T06:16:07.946Z,23.63
2023-04-19T06:18:36.174Z,29.77
2023-04-19T06:21:04.330Z,21.30
2023-04-19T06:23:32.393Z,15.70
2023-04-19T06:26:00.656Z,17.27
2023-04-19T06:28:29.335Z,16.90
2023-04-19T06:30:58.796Z,14.43
2023-04-19T06:33:26.967Z,10.53
2023-04-19T06:35:55.028Z,9.80
2023-04-19T06:38:23.184Z,10.40
2023-04-19T06:40:51.277Z,10.83
2023-04-19T06:43:19.929Z,9.17
2023-04-19T06:45:48.275Z,9.17
2023-04-19T06:48:17.985Z,8.97
2023-04-19T06:50:46.077Z,8.80
2023-04-19T06:53:14.229Z,9.47
2023-04-19T06:55:42.902Z,10.20
2023-04-19T06:58:11.008Z,10.10
2023-04-19T07:00:39.146Z,10.07
2023-04-19T07:03:07.383Z,11.07
2023-04-19T07:05:37.861Z,11.00
2023-04-19T07:08:06.226Z,12.10
2023-04-19T07:10:34.758Z,12.37
2023-04-19T07:13:03.148Z,11.77
2023-04-19T07:15:31.457Z,12.33
2023-04-19T07:17:59.587Z,12.20
2023-04-19T07:20:27.750Z,12.50
2023-04-19T07:22:57.277Z,12.53
2023-04-19T07:25:25.368Z,11.97
2023-04-19T07:27:54.051Z,12.20
2023-04-19T07:30:22.387Z,11.40
2023-04-19T07:32:51.817Z,10.07
2023-04-19T07:35:20.904Z,10.60
2023-04-19T07:37:49.512Z,9.03
2023-04-19T07:40:19.228Z,8.00
2023-04-19T07:42:47.388Z,8.23
2023-04-19T07:45:15.752Z,7.67
2023-04-19T07:47:44.030Z,7.50
2023-04-19T07:50:12.683Z,7.07
2023-04-19T07:52:40.856Z,7.10
2023-04-19T07:55:09.809Z,6.97
2023-04-19T07:57:39.281Z,6.43
2023-04-19T08:00:10.555Z,6.10
2023-04-19T08:02:45.748Z,5.80
2023-04-19T08:05:14.763Z,6.03
2023-04-19T08:07:42.983Z,5.23
2023-04-19T08:10:11.441Z,5.47
2023-04-19T08:12:50.382Z,4.77
2023-04-19T08:16:04.969Z,5.67
2023-04-19T08:18:13.696Z,4.90
2023-04-19T08:20:42.698Z,5.53
2023-04-19T08:23:21.636Z,5.63
2023-04-19T08:25:54.051Z,4.90
2023-04-19T08:28:24.601Z,5.87
2023-04-19T08:30:53.529Z,5.17
2023-04-19T08:33:21.744Z,4.87
2023-04-19T08:35:50.125Z,5.00
2023-04-19T08:38:18.243Z,4.40
2023-04-19T08:40:47.793Z,4.63
2023-04-19T08:43:16.676Z,4.87
2023-04-19T08:45:47.660Z,5.03
2023-04-19T08:48:16.426Z,4.27
2023-04-19T08:51:00.676Z,4.77
2023-04-19T08:53:32.072Z,4.30
2023-04-19T08:58:51.917Z,4.57
2023-04-19T09:01:34.828Z,4.10
2023-04-19T09:04:26.588Z,3.83
2023-04-19T09:06:55.676Z,3.93
2023-04-19T09:09:35.463Z,4.03
2023-04-19T09:12:17.466Z,4.20
2023-04-19T09:14:59.997Z,3.73
2023-04-19T09:17:31.330Z,4.57
2023-04-19T09:19:59.715Z,4.30
2023-04-19T09:22:27.862Z,3.83
2023-04-19T09:27:29.086Z,3.27
2023-04-19T09:29:57.718Z,3.23
2023-04-19T09:32:26.098Z,3.03
2023-04-19T09:34:56.585Z,3.43
2023-04-19T09:39:56.200Z,3.07
2023-04-19T09:42:47.433Z,2.80
2023-04-19T09:45:29.363Z,3.17
2023-04-19T09:48:02.596Z,3.07
2023-04-19T09:50:33.828Z,2.80
2023-04-19T09:53:04.668Z,2.97
2023-04-19T09:55:39.261Z,2.73
2023-04-19T09:58:16.950Z,3.10
2023-04-19T10:00:49.987Z,3.17
2023-04-19T10:03:22.137Z,2.90
2023-04-19T10:05:52.273Z,3.03
2023-04-19T10:08:20.407Z,2.70
2023-04-19T10:10:49.627Z,3.13
2023-04-19T10:13:20.709Z,3.30
2023-04-19T10:15:54.113Z,2.90
2023-04-19T10:18:25.340Z,2.97
2023-04-19T10:20:58.384Z,3.00
2023-04-19T10:23:26.510Z,2.90
2023-04-19T10:25:57.093Z,3.00
2023-04-19T10:28:25.333Z,3.27
2023-04-19T10:30:56.946Z,2.90
2023-04-19T10:33:29.086Z,3.00
2023-04-19T10:35:59.031Z,3.00
2023-04-19T10:38:41.472Z,2.60
2023-04-19T10:41:16.914Z,2.80
2023-04-19T10:43:46.963Z,3.20
2023-04-19T10:46:16.570Z,2.70
2023-04-19T10:48:54.989Z,3.00
2023-04-19T10:51:25.407Z,2.90
2023-04-19T10:53:57.694Z,3.20
2023-04-19T10:57:12.029Z,3.40
2023-04-19T10:59:43.155Z,2.97
2023-04-19T11:02:30.728Z,3.17
2023-04-19T11:05:02.534Z,3.67
2023-04-19T11:07:38.159Z,3.83
2023-04-19T11:10:06.798Z,3.07
2023-04-19T11:12:35.061Z,3.10
2023-04-19T11:15:03.371Z,4.37
2023-04-19T11:17:32.462Z,4.20
2023-04-19T11:20:01.804Z,3.30
2023-04-19T11:22:34.742Z,3.27
2023-04-19T11:25:10.406Z,3.10
2023-04-19T11:27:38.689Z,4.10
2023-04-19T11:30:08.290Z,4.03
2023-04-19T11:32:36.783Z,3.80
2023-04-19T11:35:08.992Z,3.80
2023-04-19T11:37:39.055Z,3.53
2023-04-19T11:40:08.624Z,3.00
2023-04-19T11:42:37.523Z,3.40
2023-04-19T11:45:13.095Z,3.10
2023-04-19T11:47:50.258Z,2.90
2023-04-19T11:50:42.279Z,2.63
2023-04-19T11:53:16.251Z,3.13
2023-04-19T11:55:45.684Z,3.30
2023-04-19T11:58:30.007Z,3.23
2023-04-19T12:01:00.924Z,3.30
2023-04-19T12:03:29.378Z,3.00
2023-04-19T12:05:58.427Z,3.27
2023-04-19T12:08:35.044Z,3.40
2023-04-19T12:11:03.764Z,3.20
2023-04-19T12:13:32.012Z,3.27
2023-04-19T12:16:00.206Z,3.00
2023-04-19T12:18:28.362Z,3.00
2023-04-19T12:20:57.549Z,3.47
2023-04-19T12:23:26.978Z,3.27
2023-04-19T12:25:56.477Z,3.20
2023-04-19T12:28:24.629Z,3.23
2023-04-19T12:30:53.052Z,3.43
2023-04-19T12:33:23.367Z,3.13
2023-04-19T12:35:52.322Z,3.63
2023-04-19T12:38:20.439Z,3.27
2023-04-19T12:40:48.583Z,3.30
2023-04-19T12:43:18.173Z,3.40
2023-04-19T12:45:46.313Z,3.73
2023-04-19T12:48:14.463Z,3.23
2023-04-19T12:50:43.090Z,3.47
2023-04-19T12:53:11.192Z,3.20
2023-04-19T12:55:39.335Z,3.40
2023-04-19T12:58:07.417Z,3.23
2023-04-19T13:00:36.909Z,3.47
2023-04-19T13:03:05.277Z,3.40
2023-04-19T13:05:33.881Z,3.60
2023-04-19T13:08:02.122Z,3.10
2023-04-19T13:10:30.664Z,3.10
2023-04-19T13:12:59.255Z,3.47
2023-04-19T13:15:28.683Z,3.37
2023-04-19T13:17:58.812Z,3.33
2023-04-19T13:20:26.950Z,3.70
2023-04-19T13:22:55.061Z,4.00
2023-04-19T13:25:23.164Z,21.47
2023-04-19T13:27:51.757Z,3.90
2023-04-19T13:30:19.855Z,3.60
2023-04-19T13:32:48.438Z,4.10
2023-04-19T13:35:17.928Z,16.03
2023-04-19T13:37:47.585Z,6.97
2023-04-19T13:40:18.835Z,23.93
2023-04-19T13:42:47.707Z,7.10
2023-04-19T13:45:16.340Z,7.23
2023-04-19T13:47:44.466Z,4.00
2023-04-19T13:50:13.153Z,5.67
2023-04-19T13:52:42.779Z,3.80
2023-04-19T13:55:11.096Z,7.07
2023-04-19T13:57:39.244Z,37.70
2023-04-19T14:00:09.222Z,35.10
2023-04-19T14:02:37.496Z,5.93
2023-04-19T14:05:06.585Z,3.90
2023-04-19T14:07:35.022Z,4.83
2023-04-19T14:10:04.665Z,5.07
2023-04-19T14:12:33.233Z,3.60
2023-04-19T14:15:01.361Z,3.03
2023-04-19T14:17:29.527Z,3.33
2023-04-19T14:19:57.833Z,3.90
2023-04-19T14:22:25.923Z,3.97
2023-04-19T14:24:54.441Z,3.70
2023-04-19T14:27:23.932Z,3.90
2023-04-19T14:29:52.086Z,5.00
2023-04-19T14:34:51.401Z,4.10
2023-04-19T14:37:19.565Z,4.00
2023-04-19T14:39:48.226Z,4.40
2023-04-19T14:42:16.346Z,5.10
2023-04-19T14:44:47.214Z,3.50
2023-04-19T14:47:15.366Z,3.60
2023-04-19T14:49:43.509Z,4.17
2023-04-19T14:52:12.089Z,4.10
2023-04-19T14:54:40.298Z,4.10
2023-04-19T14:57:08.469Z,3.90
2023-04-19T14:59:36.712Z,4.30
2023-04-19T15:02:06.217Z,5.03
2023-04-19T15:04:37.418Z,5.23
2023-04-19T15:07:07.402Z,4.57
2023-04-19T15:09:35.532Z,5.10
2023-04-19T15:12:03.656Z,4.97
2023-04-19T15:14:31.749Z,4.70
2023-04-19T15:16:59.845Z,4.43
2023-04-19T15:19:30.881Z,4.47
2023-04-19T15:21:58.993Z,5.03
2023-04-19T15:24:27.179Z,5.30
2023-04-19T15:26:56.663Z,4.90
2023-04-19T15:29:24.973Z,4.40
2023-04-19T15:31:53.339Z,5.23
2023-04-19T15:34:22.085Z,4.40
2023-04-19T15:36:51.689Z,4.50
2023-04-19T15:39:19.766Z,4.37
2023-04-19T15:41:47.906Z,4.67
2023-04-19T15:44:16.019Z,4.00
2023-04-19T15:46:44.190Z,4.23
2023-04-19T15:49:12.789Z,4.20
2023-04-19T15:51:40.987Z,4.40
2023-04-19T15:54:11.149Z,3.63
2023-04-19T15:56:39.333Z,5.07
2023-04-19T15:59:07.656Z,4.40
2023-04-19T16:01:36.435Z,3.80
2023-04-19T16:04:04.990Z,3.77
2023-04-19T16:06:33.292Z,3.73
2023-04-19T16:09:01.416Z,3.80
2023-04-19T16:11:30.962Z,3.60
2023-04-19T16:13:59.344Z,3.97
2023-04-19T16:16:31.097Z,3.90
2023-04-19T16:18:59.411Z,4.07
2023-04-19T16:21:28.864Z,3.57
2023-04-19T16:23:57.160Z,3.87
2023-04-19T16:26:25.394Z,3.93
2023-04-19T16:28:55.321Z,4.30
2023-04-19T16:31:23.448Z,4.23
2023-04-19T16:33:51.625Z,4.10
2023-04-19T16:36:19.751Z,4.20
2023-04-19T16:38:47.940Z,4.07
2023-04-19T16:41:16.070Z,4.37
2023-04-19T16:43:44.772Z,4.77
2023-04-19T16:46:14.325Z,5.07
2023-04-19T16:48:42.493Z,5.90
2023-04-19T16:51:10.626Z,4.90
2023-04-19T16:53:38.759Z,4.70
2023-04-19T16:56:07.822Z,4.87
2023-04-19T16:58:35.929Z,4.93
2023-04-19T17:01:04.090Z,5.37
2023-04-19T17:03:34.029Z,5.97
2023-04-19T17:06:02.279Z,4.90
2023-04-19T17:08:30.814Z,5.60
2023-04-19T17:10:59.374Z,6.60
2023-04-19T17:13:27.614Z,5.63
2023-04-19T17:15:55.779Z,5.63
2023-04-19T17:18:23.896Z,4.80
2023-04-19T17:20:53.473Z,5.67
2023-04-19T17:23:22.203Z,5.27
2023-04-19T17:25:50.354Z,5.07
2023-04-19T17:28:18.469Z,5.47
2023-04-19T17:30:46.661Z,5.30
2023-04-19T17:33:14.800Z,5.60
2023-04-19T17:35:42.937Z,5.67
2023-04-19T17:38:12.632Z,5.30
2023-04-19T17:40:40.763Z,5.00
2023-04-19T17:43:09.597Z,6.03
2023-04-19T17:45:37.746Z,5.87
2023-04-19T17:48:06.648Z,5.80
2023-04-19T17:50:35.887Z,5.33
2023-04-19T17:53:03.994Z,5.57
2023-04-19T17:55:33.803Z,5.60
2023-04-19T17:58:01.932Z,5.27
2023-04-19T18:00:30.136Z,5.70
2023-04-19T18:02:58.772Z,5.67
2023-04-19T18:05:27.158Z,6.80
2023-04-19T18:07:55.326Z,5.97
2023-04-19T18:10:23.460Z,5.47
2023-04-19T18:12:53.847Z,5.57
2023-04-19T18:15:22.199Z,5.73
2023-04-19T18:17:50.635Z,5.93
2023-04-19T18:20:19.804Z,6.03
2023-04-19T18:22:49.819Z,5.97
2023-04-19T18:25:18.077Z,5.47
2023-04-19T18:27:46.320Z,5.47
2023-04-19T18:30:16.538Z,5.57
2023-04-19T18:32:45.008Z,5.60
2023-04-19T18:35:13.198Z,5.40
2023-04-19T18:37:41.786Z,6.23
2023-04-19T18:40:10.798Z,6.07
2023-04-19T18:42:38.943Z,6.13
2023-04-19T18:45:08.861Z,5.80
2023-04-19T18:47:38.422Z,6.37
2023-04-19T18:50:08.719Z,5.87
2023-04-19T18:52:37.334Z,5.90
2023-04-19T18:55:06.261Z,5.67
2023-04-19T18:57:35.419Z,6.17
2023-04-19T19:00:06.047Z,5.57
2023-04-19T19:02:37.128Z,6.17
2023-04-19T19:05:08.486Z,6.27
2023-04-19T19:07:37.815Z,6.10
2023-04-19T19:10:17.067Z,6.10
2023-04-19T19:12:47.578Z,5.37
2023-04-19T19:15:15.772Z,5.87
2023-04-19T19:17:49.469Z,5.53
2023-04-19T19:20:20.196Z,5.40
2023-04-19T19:22:48.406Z,5.93
2023-04-19T19:25:17.124Z,5.70
2023-04-19T19:28:02.767Z,6.23
2023-04-19T19:30:34.702Z,6.17
2023-04-19T19:33:04.681Z,6.07
2023-04-19T19:35:34.572Z,5.37
2023-04-19T19:38:02.689Z,6.00
2023-04-19T19:40:32.712Z,5.23
2023-04-19T19:43:01.488Z,6.20
2023-04-19T19:45:30.147Z,6.40
2023-04-19T19:47:59.853Z,5.67
2023-04-19T19:53:01.275Z,5.17
2023-04-19T19:55:30.032Z,5.80
2023-04-19T20:00:42.840Z,5.63
2023-04-19T20:03:12.731Z,5.77
2023-04-19T20:05:41.312Z,6.13
2023-04-19T20:08:12.528Z,5.67
2023-04-19T20:10:42.060Z,5.50
2023-04-19T20:13:11.962Z,6.40
2023-04-19T20:15:40.714Z,6.33
2023-04-19T20:18:09.288Z,6.17
2023-04-19T20:20:37.887Z,6.57
2023-04-19T20:23:06.030Z,6.37
2023-04-19T20:25:35.595Z,6.17
2023-04-19T20:28:04.785Z,6.50
2023-04-19T20:30:33.009Z,6.23
2023-04-19T20:33:01.285Z,5.80
2023-04-19T20:35:30.387Z,6.83
2023-04-19T20:38:02.576Z,6.50
2023-04-19T20:40:31.899Z,6.57
2023-04-19T20:43:01.555Z,6.20
2023-04-19T20:45:29.937Z,6.13
2023-04-19T20:47:58.664Z,6.63
2023-04-19T20:50:26.938Z,6.10
2023-04-19T20:52:55.148Z,6.00
2023-04-19T20:55:23.440Z,6.70
2023-04-19T20:57:51.607Z,6.50
2023-04-19T21:00:21.855Z,7.57
2023-04-19T21:02:50.303Z,6.67
2023-04-19T21:05:18.495Z,7.07
2023-04-19T21:07:46.771Z,7.50
2023-04-19T21:10:16.915Z,7.20
2023-04-19T21:12:45.043Z,7.70
2023-04-19T21:15:13.677Z,7.07
2023-04-19T21:17:43.316Z,6.83
2023-04-19T21:20:14.331Z,6.17
2023-04-19T21:22:42.634Z,6.63
2023-04-19T21:25:11.181Z,6.33
2023-04-19T21:27:39.370Z,7.40
2023-04-19T21:30:10.851Z,6.80
2023-04-19T21:32:39.059Z,7.03
2023-04-19T21:35:09.823Z,6.97
2023-04-19T21:37:37.944Z,7.30
2023-04-19T21:40:07.215Z,6.63
2023-04-19T21:42:36.272Z,6.87
2023-04-19T21:45:04.858Z,7.17
2023-04-19T21:47:33.034Z,7.13
2023-04-19T21:50:01.258Z,7.30
2023-04-19T21:52:30.781Z,6.93
2023-04-19T21:54:59.224Z,6.57
2023-04-19T21:57:27.393Z,7.60
2023-04-19T21:59:55.670Z,7.17
2023-04-19T22:02:24.217Z,7.57
2023-04-19T22:04:52.737Z,8.07
2023-04-19T22:07:23.978Z,8.07
2023-04-19T22:09:54.395Z,8.03
2023-04-19T22:12:23.344Z,7.73
2023-04-19T22:14:51.964Z,7.67
2023-04-19T22:17:20.102Z,8.90
2023-04-19T22:19:48.828Z,8.57
2023-04-19T22:22:17.310Z,8.90
2023-04-19T22:24:56.767Z,10.07
2023-04-19T22:27:27.237Z,9.70
2023-04-19T22:29:55.376Z,8.93
2023-04-19T22:32:23.605Z,9.30
2023-04-19T22:34:51.871Z,10.17
2023-04-19T22:37:20.393Z,9.37
2023-04-19T22:39:48.495Z,10.27
2023-04-19T22:42:16.616Z,10.13
2023-04-19T22:44:46.072Z,10.23
2023-04-19T22:47:14.546Z,10.67
2023-04-19T22:49:43.467Z,11.20
2023-04-19T22:52:11.862Z,11.33
2023-04-19T22:54:39.960Z,10.47
2023-04-19T22:57:08.083Z,10.93
2023-04-19T22:59:36.201Z,9.80
2023-04-19T23:02:05.861Z,9.83
2023-04-19T23:04:35.292Z,10.00
2023-04-19T23:07:04.200Z,9.70
2023-04-19T23:09:32.279Z,8.97
2023-04-19T23:12:00.619Z,9.87
2023-04-19T23:14:29.232Z,9.80
2023-04-19T23:16:58.667Z,10.10
2023-04-19T23:19:28.202Z,9.97
2023-04-19T23:21:56.307Z,9.80
2023-04-19T23:24:24.371Z,9.63
2023-04-19T23:26:52.462Z,10.10
2023-04-19T23:29:20.599Z,9.77
2023-04-19T23:31:49.158Z,9.53
2023-04-19T23:34:17.314Z,9.07
2023-04-19T23:36:46.796Z,9.77
2023-04-19T23:39:16.435Z,9.90
2023-04-19T23:41:44.807Z,9.10
2023-04-19T23:44:12.918Z,8.80
2023-04-19T23:46:41.437Z,8.83
2023-04-19T23:49:09.663Z,10.60
2023-04-19T23:51:37.742Z,9.00
2023-04-19T23:54:07.449Z,8.17
2023-04-19T23:56:35.546Z,8.73
2023-04-19T23:59:04.057Z,8.23
